sensor_id;sensor_type;location;lat;lon;timestamp;temperature;humidity
29725;DHT22;16636;48.394;15.468;2023-04-06T00:02:08;2.20;93.40
29725;DHT22;16636;48.394;15.468;2023-04-06T00:04:34;2.10;92.80
29725;DHT22;16636;48.394;15.468;2023-04-06T00:07:00;2.10;93.10
29725;DHT22;16636;48.394;15.468;2023-04-06T00:09:26;2.20;93.40
29725;DHT22;16636;48.394;15.468;2023-04-06T00:11:52;2.10;93.10
29725;DHT22;16636;48.394;15.468;2023-04-06T00:14:18;2.10;93.80
29725;DHT22;16636;48.394;15.468;2023-04-06T00:16:44;2.00;93.40
29725;DHT22;16636;48.394;15.468;2023-04-06T00:19:10;2.00;93.30
29725;DHT22;16636;48.394;15.468;2023-04-06T00:21:35;2.00;93.50
29725;DHT22;16636;48.394;15.468;2023-04-06T00:24:01;2.00;93.60
29725;DHT22;16636;48.394;15.468;2023-04-06T00:26:29;2.00;94.20
29725;DHT22;16636;48.394;15.468;2023-04-06T00:28:56;2.10;95.00
29725;DHT22;16636;48.394;15.468;2023-04-06T00:31:24;2.00;94.40
29725;DHT22;16636;48.394;15.468;2023-04-06T00:33:50;2.00;94.20
29725;DHT22;16636;48.394;15.468;2023-04-06T00:36:16;2.00;94.40
29725;DHT22;16636;48.394;15.468;2023-04-06T00:38:42;2.10;95.40
29725;DHT22;16636;48.394;15.468;2023-04-06T00:41:08;2.10;94.40
29725;DHT22;16636;48.394;15.468;2023-04-06T00:43:34;2.00;93.60
29725;DHT22;16636;48.394;15.468;2023-04-06T00:46:00;1.90;93.40
29725;DHT22;16636;48.394;15.468;2023-04-06T00:48:25;1.90;94.60
29725;DHT22;16636;48.394;15.468;2023-04-06T00:50:51;1.90;94.90
29725;DHT22;16636;48.394;15.468;2023-04-06T00:53:17;2.00;95.50
29725;DHT22;16636;48.394;15.468;2023-04-06T00:55:43;2.00;96.40
29725;DHT22;16636;48.394;15.468;2023-04-06T00:58:10;2.00;95.90
29725;DHT22;16636;48.394;15.468;2023-04-06T01:00:45;2.00;95.70
29725;DHT22;16636;48.394;15.468;2023-04-06T01:03:15;2.00;94.40
29725;DHT22;16636;48.394;15.468;2023-04-06T01:05:43;1.90;94.20
29725;DHT22;16636;48.394;15.468;2023-04-06T01:08:20;1.90;94.50
29725;DHT22;16636;48.394;15.468;2023-04-06T01:10:48;1.80;94.80
29725;DHT22;16636;48.394;15.468;2023-04-06T01:13:27;1.70;95.90
29725;DHT22;16636;48.394;15.468;2023-04-06T01:15:56;1.80;96.60
29725;DHT22;16636;48.394;15.468;2023-04-06T01:18:32;1.80;95.90
29725;DHT22;16636;48.394;15.468;2023-04-06T01:21:18;1.70;96.30
29725;DHT22;16636;48.394;15.468;2023-04-06T01:24:12;1.70;96.60
29725;DHT22;16636;48.394;15.468;2023-04-06T01:27:02;1.70;97.40
29725;DHT22;16636;48.394;15.468;2023-04-06T01:29:36;1.80;98.00
29725;DHT22;16636;48.394;15.468;2023-04-06T01:32:04;1.70;98.00
29725;DHT22;16636;48.394;15.468;2023-04-06T01:34:35;1.70;98.00
29725;DHT22;16636;48.394;15.468;2023-04-06T01:37:03;1.60;98.40
29725;DHT22;16636;48.394;15.468;2023-04-06T01:39:31;1.60;98.90
29725;DHT22;16636;48.394;15.468;2023-04-06T01:41:57;1.50;98.60
29725;DHT22;16636;48.394;15.468;2023-04-06T01:44:24;1.50;99.00
29725;DHT22;16636;48.394;15.468;2023-04-06T01:47:02;1.50;98.30
29725;DHT22;16636;48.394;15.468;2023-04-06T01:49:28;1.60;97.50
29725;DHT22;16636;48.394;15.468;2023-04-06T01:51:55;1.50;97.70
29725;DHT22;16636;48.394;15.468;2023-04-06T01:54:21;1.60;98.60
29725;DHT22;16636;48.394;15.468;2023-04-06T01:57:10;1.50;98.80
29725;DHT22;16636;48.394;15.468;2023-04-06T01:59:56;1.50;99.20
29725;DHT22;16636;48.394;15.468;2023-04-06T02:02:28;1.50;99.90
29725;DHT22;16636;48.394;15.468;2023-04-06T02:05:06;1.50;99.90
29725;DHT22;16636;48.394;15.468;2023-04-06T02:07:32;1.40;99.90
29725;DHT22;16636;48.394;15.468;2023-04-06T02:09:59;1.40;99.90
29725;DHT22;16636;48.394;15.468;2023-04-06T02:12:33;1.40;99.90
29725;DHT22;16636;48.394;15.468;2023-04-06T02:15:00;1.40;99.90
29725;DHT22;16636;48.394;15.468;2023-04-06T02:17:26;1.40;99.90
29725;DHT22;16636;48.394;15.468;2023-04-06T02:19:52;1.40;99.90
29725;DHT22;16636;48.394;15.468;2023-04-06T02:22:18;1.30;99.90
29725;DHT22;16636;48.394;15.468;2023-04-06T02:24:44;1.20;99.90
29725;DHT22;16636;48.394;15.468;2023-04-06T02:27:10;1.20;99.90
29725;DHT22;16636;48.394;15.468;2023-04-06T02:29:36;1.20;99.90
29725;DHT22;16636;48.394;15.468;2023-04-06T02:32:03;1.30;99.90
29725;DHT22;16636;48.394;15.468;2023-04-06T02:34:31;1.20;99.90
29725;DHT22;16636;48.394;15.468;2023-04-06T02:36:57;1.20;99.90
29725;DHT22;16636;48.394;15.468;2023-04-06T02:39:23;1.00;99.90
29725;DHT22;16636;48.394;15.468;2023-04-06T02:41:50;1.10;99.90
29725;DHT22;16636;48.394;15.468;2023-04-06T02:44:20;1.10;99.90
29725;DHT22;16636;48.394;15.468;2023-04-06T02:46:47;1.10;99.90
29725;DHT22;16636;48.394;15.468;2023-04-06T02:49:12;1.00;99.90
29725;DHT22;16636;48.394;15.468;2023-04-06T02:51:39;0.90;99.90
29725;DHT22;16636;48.394;15.468;2023-04-06T02:54:28;1.00;99.90
29725;DHT22;16636;48.394;15.468;2023-04-06T02:56:54;1.00;99.90
29725;DHT22;16636;48.394;15.468;2023-04-06T02:59:23;1.10;99.90
29725;DHT22;16636;48.394;15.468;2023-04-06T03:02:00;1.10;99.90
29725;DHT22;16636;48.394;15.468;2023-04-06T03:04:25;1.00;99.90
29725;DHT22;16636;48.394;15.468;2023-04-06T03:06:53;0.90;99.90
29725;DHT22;16636;48.394;15.468;2023-04-06T03:09:30;1.00;99.90
29725;DHT22;16636;48.394;15.468;2023-04-06T03:11:56;1.00;99.90
29725;DHT22;16636;48.394;15.468;2023-04-06T03:14:24;0.90;99.90
29725;DHT22;16636;48.394;15.468;2023-04-06T03:16:50;0.90;99.90
29725;DHT22;16636;48.394;15.468;2023-04-06T03:19:19;0.80;99.90
29725;DHT22;16636;48.394;15.468;2023-04-06T03:21:46;0.80;99.90
29725;DHT22;16636;48.394;15.468;2023-04-06T03:24:14;0.60;99.90
29725;DHT22;16636;48.394;15.468;2023-04-06T03:26:41;0.60;99.90
29725;DHT22;16636;48.394;15.468;2023-04-06T03:29:08;0.60;99.90
29725;DHT22;16636;48.394;15.468;2023-04-06T03:31:34;0.60;99.90
29725;DHT22;16636;48.394;15.468;2023-04-06T03:34:22;0.60;99.90
29725;DHT22;16636;48.394;15.468;2023-04-06T03:36:48;0.70;99.90
29725;DHT22;16636;48.394;15.468;2023-04-06T03:39:14;0.70;99.90
29725;DHT22;16636;48.394;15.468;2023-04-06T03:41:42;0.70;99.90
29725;DHT22;16636;48.394;15.468;2023-04-06T03:44:26;0.70;99.90
29725;DHT22;16636;48.394;15.468;2023-04-06T03:46:52;0.60;99.90
29725;DHT22;16636;48.394;15.468;2023-04-06T03:49:18;0.60;99.90
29725;DHT22;16636;48.394;15.468;2023-04-06T03:51:48;0.60;99.90
29725;DHT22;16636;48.394;15.468;2023-04-06T03:54:14;0.50;99.90
29725;DHT22;16636;48.394;15.468;2023-04-06T03:56:40;0.40;99.90
29725;DHT22;16636;48.394;15.468;2023-04-06T03:59:06;0.50;99.90
29725;DHT22;16636;48.394;15.468;2023-04-06T04:01:32;0.40;99.90
29725;DHT22;16636;48.394;15.468;2023-04-06T04:03:58;0.40;99.90
29725;DHT22;16636;48.394;15.468;2023-04-06T04:06:23;0.40;99.90
29725;DHT22;16636;48.394;15.468;2023-04-06T04:08:50;0.30;99.90
29725;DHT22;16636;48.394;15.468;2023-04-06T04:11:16;0.40;99.90
29725;DHT22;16636;48.394;15.468;2023-04-06T04:13:44;0.40;99.90
29725;DHT22;16636;48.394;15.468;2023-04-06T04:16:10;0.40;99.90
29725;DHT22;16636;48.394;15.468;2023-04-06T04:18:36;0.40;99.90
29725;DHT22;16636;48.394;15.468;2023-04-06T04:21:02;0.40;99.90
29725;DHT22;16636;48.394;15.468;2023-04-06T04:23:28;0.40;99.90
29725;DHT22;16636;48.394;15.468;2023-04-06T04:25:54;0.40;99.90
29725;DHT22;16636;48.394;15.468;2023-04-06T04:28:20;0.40;99.90
29725;DHT22;16636;48.394;15.468;2023-04-06T04:30:46;0.30;99.90
29725;DHT22;16636;48.394;15.468;2023-04-06T04:33:13;0.30;99.90
29725;DHT22;16636;48.394;15.468;2023-04-06T04:35:40;0.30;99.90
29725;DHT22;16636;48.394;15.468;2023-04-06T04:38:07;0.20;99.90
29725;DHT22;16636;48.394;15.468;2023-04-06T04:40:38;0.20;99.90
29725;DHT22;16636;48.394;15.468;2023-04-06T04:43:08;0.20;99.90
29725;DHT22;16636;48.394;15.468;2023-04-06T04:45:34;0.20;99.90
29725;DHT22;16636;48.394;15.468;2023-04-06T04:48:10;0.20;99.90
29725;DHT22;16636;48.394;15.468;2023-04-06T04:50:48;0.20;99.90
29725;DHT22;16636;48.394;15.468;2023-04-06T04:53:16;0.20;99.90
29725;DHT22;16636;48.394;15.468;2023-04-06T04:55:43;0.30;99.90
29725;DHT22;16636;48.394;15.468;2023-04-06T04:58:10;0.30;99.90
29725;DHT22;16636;48.394;15.468;2023-04-06T05:00:57;0.30;99.90
29725;DHT22;16636;48.394;15.468;2023-04-06T05:03:23;0.30;99.90
29725;DHT22;16636;48.394;15.468;2023-04-06T05:06:03;0.30;99.90
29725;DHT22;16636;48.394;15.468;2023-04-06T05:08:32;0.40;99.90
29725;DHT22;16636;48.394;15.468;2023-04-06T05:10:59;0.30;99.90
29725;DHT22;16636;48.394;15.468;2023-04-06T05:13:26;0.30;99.90
29725;DHT22;16636;48.394;15.468;2023-04-06T05:15:54;0.30;99.90
29725;DHT22;16636;48.394;15.468;2023-04-06T05:18:26;0.40;99.90
29725;DHT22;16636;48.394;15.468;2023-04-06T05:20:53;0.40;99.90
29725;DHT22;16636;48.394;15.468;2023-04-06T05:23:25;0.30;99.90
29725;DHT22;16636;48.394;15.468;2023-04-06T05:25:51;0.30;99.90
29725;DHT22;16636;48.394;15.468;2023-04-06T05:28:20;0.40;99.90
29725;DHT22;16636;48.394;15.468;2023-04-06T05:30:46;0.50;99.90
29725;DHT22;16636;48.394;15.468;2023-04-06T05:33:14;0.50;99.90
29725;DHT22;16636;48.394;15.468;2023-04-06T05:36:15;0.40;99.90
29725;DHT22;16636;48.394;15.468;2023-04-06T05:38:43;0.40;99.90
29725;DHT22;16636;48.394;15.468;2023-04-06T05:41:19;0.50;99.90
29725;DHT22;16636;48.394;15.468;2023-04-06T05:43:46;0.50;99.90
29725;DHT22;16636;48.394;15.468;2023-04-06T05:46:11;0.60;99.90
29725;DHT22;16636;48.394;15.468;2023-04-06T05:48:37;0.60;99.90
29725;DHT22;16636;48.394;15.468;2023-04-06T05:51:03;0.50;99.90
29725;DHT22;16636;48.394;15.468;2023-04-06T05:53:39;0.60;99.90
29725;DHT22;16636;48.394;15.468;2023-04-06T05:56:06;0.60;99.90
29725;DHT22;16636;48.394;15.468;2023-04-06T05:58:32;0.60;99.90
29725;DHT22;16636;48.394;15.468;2023-04-06T06:00:59;0.60;99.90
29725;DHT22;16636;48.394;15.468;2023-04-06T06:03:32;0.70;99.90
29725;DHT22;16636;48.394;15.468;2023-04-06T06:06:02;0.80;99.90
29725;DHT22;16636;48.394;15.468;2023-04-06T06:08:35;0.80;99.90
29725;DHT22;16636;48.394;15.468;2023-04-06T06:11:03;0.90;99.90
29725;DHT22;16636;48.394;15.468;2023-04-06T06:13:30;1.00;99.90
29725;DHT22;16636;48.394;15.468;2023-04-06T06:15:56;1.10;99.90
29725;DHT22;16636;48.394;15.468;2023-04-06T06:18:22;1.10;99.90
29725;DHT22;16636;48.394;15.468;2023-04-06T06:20:51;1.30;99.90
29725;DHT22;16636;48.394;15.468;2023-04-06T06:23:17;1.30;99.90
29725;DHT22;16636;48.394;15.468;2023-04-06T06:25:43;1.40;99.90
29725;DHT22;16636;48.394;15.468;2023-04-06T06:28:09;1.50;99.90
29725;DHT22;16636;48.394;15.468;2023-04-06T06:30:35;1.50;99.90
29725;DHT22;16636;48.394;15.468;2023-04-06T06:33:01;1.60;99.90
29725;DHT22;16636;48.394;15.468;2023-04-06T06:35:29;1.60;99.90
29725;DHT22;16636;48.394;15.468;2023-04-06T06:37:57;1.70;99.90
29725;DHT22;16636;48.394;15.468;2023-04-06T06:40:26;1.70;99.90
29725;DHT22;16636;48.394;15.468;2023-04-06T06:42:54;1.80;99.90
29725;DHT22;16636;48.394;15.468;2023-04-06T06:45:46;1.90;99.90
29725;DHT22;16636;48.394;15.468;2023-04-06T06:48:13;2.00;99.90
29725;DHT22;16636;48.394;15.468;2023-04-06T06:50:39;2.10;99.90
29725;DHT22;16636;48.394;15.468;2023-04-06T06:53:05;2.20;99.90
29725;DHT22;16636;48.394;15.468;2023-04-06T06:55:33;2.20;99.90
29725;DHT22;16636;48.394;15.468;2023-04-06T06:57:59;2.30;99.90
29725;DHT22;16636;48.394;15.468;2023-04-06T07:00:25;2.40;99.90
29725;DHT22;16636;48.394;15.468;2023-04-06T07:02:52;2.50;99.90
29725;DHT22;16636;48.394;15.468;2023-04-06T07:05:18;2.60;99.90
29725;DHT22;16636;48.394;15.468;2023-04-06T07:07:43;2.70;99.90
29725;DHT22;16636;48.394;15.468;2023-04-06T07:10:09;2.80;99.90
29725;DHT22;16636;48.394;15.468;2023-04-06T07:12:37;2.90;99.90
29725;DHT22;16636;48.394;15.468;2023-04-06T07:15:04;3.00;99.90
29725;DHT22;16636;48.394;15.468;2023-04-06T07:17:30;3.00;99.90
29725;DHT22;16636;48.394;15.468;2023-04-06T07:19:56;3.10;99.90
29725;DHT22;16636;48.394;15.468;2023-04-06T07:22:22;3.20;99.90
29725;DHT22;16636;48.394;15.468;2023-04-06T07:24:48;3.30;99.90
29725;DHT22;16636;48.394;15.468;2023-04-06T07:27:14;3.40;99.90
29725;DHT22;16636;48.394;15.468;2023-04-06T07:29:42;3.50;99.90
29725;DHT22;16636;48.394;15.468;2023-04-06T07:32:08;3.50;99.90
29725;DHT22;16636;48.394;15.468;2023-04-06T07:34:34;3.50;99.90
29725;DHT22;16636;48.394;15.468;2023-04-06T07:37:00;3.70;99.90
29725;DHT22;16636;48.394;15.468;2023-04-06T07:39:27;3.70;99.90
29725;DHT22;16636;48.394;15.468;2023-04-06T07:41:55;3.80;99.90
29725;DHT22;16636;48.394;15.468;2023-04-06T07:44:21;4.00;99.90
29725;DHT22;16636;48.394;15.468;2023-04-06T07:46:47;4.20;99.90
29725;DHT22;16636;48.394;15.468;2023-04-06T07:49:14;4.30;99.90
29725;DHT22;16636;48.394;15.468;2023-04-06T07:51:40;4.50;99.90
29725;DHT22;16636;48.394;15.468;2023-04-06T07:54:06;4.60;99.90
29725;DHT22;16636;48.394;15.468;2023-04-06T07:56:32;4.70;99.90
29725;DHT22;16636;48.394;15.468;2023-04-06T07:58:58;4.90;99.90
29725;DHT22;16636;48.394;15.468;2023-04-06T08:01:24;4.90;99.90
29725;DHT22;16636;48.394;15.468;2023-04-06T08:03:50;4.90;99.90
29725;DHT22;16636;48.394;15.468;2023-04-06T08:06:16;5.00;99.90
29725;DHT22;16636;48.394;15.468;2023-04-06T08:08:42;5.10;98.40
29725;DHT22;16636;48.394;15.468;2023-04-06T08:11:08;5.20;97.90
29725;DHT22;16636;48.394;15.468;2023-04-06T08:13:35;5.40;98.40
29725;DHT22;16636;48.394;15.468;2023-04-06T08:16:01;5.50;99.30
29725;DHT22;16636;48.394;15.468;2023-04-06T08:18:27;5.50;98.70
29725;DHT22;16636;48.394;15.468;2023-04-06T08:20:55;5.60;98.40
29725;DHT22;16636;48.394;15.468;2023-04-06T08:23:22;5.70;97.30
29725;DHT22;16636;48.394;15.468;2023-04-06T08:25:48;5.70;98.60
29725;DHT22;16636;48.394;15.468;2023-04-06T08:28:14;5.70;98.90
29725;DHT22;16636;48.394;15.468;2023-04-06T08:30:40;5.80;98.00
29725;DHT22;16636;48.394;15.468;2023-04-06T08:33:06;6.00;96.50
29725;DHT22;16636;48.394;15.468;2023-04-06T08:35:32;6.10;99.70
29725;DHT22;16636;48.394;15.468;2023-04-06T08:37:58;6.30;98.50
29725;DHT22;16636;48.394;15.468;2023-04-06T08:40:24;6.40;98.10
29725;DHT22;16636;48.394;15.468;2023-04-06T08:42:52;6.70;96.80
29725;DHT22;16636;48.394;15.468;2023-04-06T08:45:18;6.80;95.80
29725;DHT22;16636;48.394;15.468;2023-04-06T08:47:50;7.10;97.50
29725;DHT22;16636;48.394;15.468;2023-04-06T08:50:16;7.30;95.50
29725;DHT22;16636;48.394;15.468;2023-04-06T08:52:43;7.20;94.80
29725;DHT22;16636;48.394;15.468;2023-04-06T08:55:12;7.30;95.50
29725;DHT22;16636;48.394;15.468;2023-04-06T08:57:38;7.40;93.20
29725;DHT22;16636;48.394;15.468;2023-04-06T09:00:04;7.50;92.10
29725;DHT22;16636;48.394;15.468;2023-04-06T09:02:30;7.50;93.80
29725;DHT22;16636;48.394;15.468;2023-04-06T09:04:56;7.70;93.60
29725;DHT22;16636;48.394;15.468;2023-04-06T09:07:22;7.80;94.90
29725;DHT22;16636;48.394;15.468;2023-04-06T09:09:49;7.80;89.50
29725;DHT22;16636;48.394;15.468;2023-04-06T09:12:24;7.90;94.80
29725;DHT22;16636;48.394;15.468;2023-04-06T09:14:50;8.20;93.60
29725;DHT22;16636;48.394;15.468;2023-04-06T09:17:19;8.20;85.80
29725;DHT22;16636;48.394;15.468;2023-04-06T09:19:45;8.30;92.10
29725;DHT22;16636;48.394;15.468;2023-04-06T09:22:11;8.50;90.40
29725;DHT22;16636;48.394;15.468;2023-04-06T09:24:44;8.60;89.50
29725;DHT22;16636;48.394;15.468;2023-04-06T09:27:11;8.50;93.00
29725;DHT22;16636;48.394;15.468;2023-04-06T09:29:37;8.50;91.40
29725;DHT22;16636;48.394;15.468;2023-04-06T09:32:03;8.70;90.40
29725;DHT22;16636;48.394;15.468;2023-04-06T09:34:30;8.80;86.20
29725;DHT22;16636;48.394;15.468;2023-04-06T09:36:55;8.60;84.90
29725;DHT22;16636;48.394;15.468;2023-04-06T09:39:22;8.40;88.20
29725;DHT22;16636;48.394;15.468;2023-04-06T09:41:50;8.60;83.40
29725;DHT22;16636;48.394;15.468;2023-04-06T09:44:16;8.70;84.90
29725;DHT22;16636;48.394;15.468;2023-04-06T09:46:42;8.80;83.60
29725;DHT22;16636;48.394;15.468;2023-04-06T09:49:09;8.70;81.20
29725;DHT22;16636;48.394;15.468;2023-04-06T09:51:45;8.50;81.00
29725;DHT22;16636;48.394;15.468;2023-04-06T09:54:11;8.80;91.90
29725;DHT22;16636;48.394;15.468;2023-04-06T09:56:47;9.30;91.40
29725;DHT22;16636;48.394;15.468;2023-04-06T09:59:21;9.50;82.70
29725;DHT22;16636;48.394;15.468;2023-04-06T10:01:51;9.80;83.20
29725;DHT22;16636;48.394;15.468;2023-04-06T10:06:49;9.70;80.00
29725;DHT22;16636;48.394;15.468;2023-04-06T10:09:18;10.00;82.30
29725;DHT22;16636;48.394;15.468;2023-04-06T10:11:44;10.20;88.70
29725;DHT22;16636;48.394;15.468;2023-04-06T10:14:11;10.20;84.70
29725;DHT22;16636;48.394;15.468;2023-04-06T10:16:37;10.20;79.30
29725;DHT22;16636;48.394;15.468;2023-04-06T10:19:05;10.00;77.70
29725;DHT22;16636;48.394;15.468;2023-04-06T10:21:32;10.10;77.40
29725;DHT22;16636;48.394;15.468;2023-04-06T10:24:00;10.30;72.00
29725;DHT22;16636;48.394;15.468;2023-04-06T10:26:27;10.60;80.80
29725;DHT22;16636;48.394;15.468;2023-04-06T10:28:52;10.90;80.60
29725;DHT22;16636;48.394;15.468;2023-04-06T10:31:26;11.10;77.70
29725;DHT22;16636;48.394;15.468;2023-04-06T10:34:00;10.90;70.90
29725;DHT22;16636;48.394;15.468;2023-04-06T10:36:27;10.90;70.50
29725;DHT22;16636;48.394;15.468;2023-04-06T10:38:57;11.20;80.30
29725;DHT22;16636;48.394;15.468;2023-04-06T10:41:24;11.40;65.60
29725;DHT22;16636;48.394;15.468;2023-04-06T10:43:57;11.70;78.30
29725;DHT22;16636;48.394;15.468;2023-04-06T10:46:27;12.10;76.70
29725;DHT22;16636;48.394;15.468;2023-04-06T10:48:53;12.00;64.70
29725;DHT22;16636;48.394;15.468;2023-04-06T10:51:19;12.10;70.80
29725;DHT22;16636;48.394;15.468;2023-04-06T10:53:46;12.10;67.90
29725;DHT22;16636;48.394;15.468;2023-04-06T10:56:17;12.30;67.30
29725;DHT22;16636;48.394;15.468;2023-04-06T10:58:44;12.20;67.80
29725;DHT22;16636;48.394;15.468;2023-04-06T11:01:11;11.90;62.30
29725;DHT22;16636;48.394;15.468;2023-04-06T11:06:10;11.90;65.20
29725;DHT22;16636;48.394;15.468;2023-04-06T11:08:36;11.90;64.80
29725;DHT22;16636;48.394;15.468;2023-04-06T11:11:06;12.10;66.80
29725;DHT22;16636;48.394;15.468;2023-04-06T11:13:37;12.20;65.60
29725;DHT22;16636;48.394;15.468;2023-04-06T11:16:03;12.40;67.10
29725;DHT22;16636;48.394;15.468;2023-04-06T11:18:29;12.30;65.40
29725;DHT22;16636;48.394;15.468;2023-04-06T11:20:55;12.50;68.60
29725;DHT22;16636;48.394;15.468;2023-04-06T11:23:24;12.70;67.60
29725;DHT22;16636;48.394;15.468;2023-04-06T11:25:53;12.90;66.70
29725;DHT22;16636;48.394;15.468;2023-04-06T11:28:19;12.90;62.40
29725;DHT22;16636;48.394;15.468;2023-04-06T11:30:46;13.20;68.20
29725;DHT22;16636;48.394;15.468;2023-04-06T11:33:19;13.40;62.80
29725;DHT22;16636;48.394;15.468;2023-04-06T11:35:46;13.60;67.60
29725;DHT22;16636;48.394;15.468;2023-04-06T11:38:12;13.60;61.80
29725;DHT22;16636;48.394;15.468;2023-04-06T11:40:38;13.70;64.40
29725;DHT22;16636;48.394;15.468;2023-04-06T11:43:04;13.70;66.00
29725;DHT22;16636;48.394;15.468;2023-04-06T11:45:39;13.90;68.60
29725;DHT22;16636;48.394;15.468;2023-04-06T11:48:05;14.10;62.60
29725;DHT22;16636;48.394;15.468;2023-04-06T11:50:34;14.30;65.30
29725;DHT22;16636;48.394;15.468;2023-04-06T11:53:01;14.30;58.60
29725;DHT22;16636;48.394;15.468;2023-04-06T11:55:27;14.40;60.10
29725;DHT22;16636;48.394;15.468;2023-04-06T11:57:52;14.40;58.00
29725;DHT22;16636;48.394;15.468;2023-04-06T12:00:19;14.00;57.20
29725;DHT22;16636;48.394;15.468;2023-04-06T12:02:46;14.10;69.30
29725;DHT22;16636;48.394;15.468;2023-04-06T12:05:12;14.30;62.80
29725;DHT22;16636;48.394;15.468;2023-04-06T12:07:38;14.30;56.30
29725;DHT22;16636;48.394;15.468;2023-04-06T12:10:04;14.10;59.00
29725;DHT22;16636;48.394;15.468;2023-04-06T12:12:30;14.30;60.40
29725;DHT22;16636;48.394;15.468;2023-04-06T12:14:56;14.50;58.90
29725;DHT22;16636;48.394;15.468;2023-04-06T12:17:22;14.60;58.90
29725;DHT22;16636;48.394;15.468;2023-04-06T12:19:49;14.60;57.20
29725;DHT22;16636;48.394;15.468;2023-04-06T12:22:15;14.30;58.30
29725;DHT22;16636;48.394;15.468;2023-04-06T12:24:41;14.50;57.70
29725;DHT22;16636;48.394;15.468;2023-04-06T12:27:07;14.60;55.70
29725;DHT22;16636;48.394;15.468;2023-04-06T12:29:34;14.60;60.50
29725;DHT22;16636;48.394;15.468;2023-04-06T12:32:00;14.60;58.70
29725;DHT22;16636;48.394;15.468;2023-04-06T12:34:27;14.80;63.00
29725;DHT22;16636;48.394;15.468;2023-04-06T12:36:53;15.10;60.00
29725;DHT22;16636;48.394;15.468;2023-04-06T12:39:18;15.20;56.10
29725;DHT22;16636;48.394;15.468;2023-04-06T12:41:45;15.20;58.80
29725;DHT22;16636;48.394;15.468;2023-04-06T12:44:11;15.40;58.30
29725;DHT22;16636;48.394;15.468;2023-04-06T12:46:37;15.20;53.80
29725;DHT22;16636;48.394;15.468;2023-04-06T12:49:03;15.30;55.50
29725;DHT22;16636;48.394;15.468;2023-04-06T12:51:29;15.40;55.20
29725;DHT22;16636;48.394;15.468;2023-04-06T12:53:56;15.50;56.90
29725;DHT22;16636;48.394;15.468;2023-04-06T12:56:22;15.50;54.50
29725;DHT22;16636;48.394;15.468;2023-04-06T12:58:50;15.60;55.80
29725;DHT22;16636;48.394;15.468;2023-04-06T13:01:16;15.80;56.50
29725;DHT22;16636;48.394;15.468;2023-04-06T13:03:42;15.80;56.00
29725;DHT22;16636;48.394;15.468;2023-04-06T13:06:08;15.70;52.50
29725;DHT22;16636;48.394;15.468;2023-04-06T13:08:35;15.50;57.20
29725;DHT22;16636;48.394;15.468;2023-04-06T13:11:02;15.60;55.30
29725;DHT22;16636;48.394;15.468;2023-04-06T13:13:29;15.80;54.40
29725;DHT22;16636;48.394;15.468;2023-04-06T13:15:59;15.90;53.20
29725;DHT22;16636;48.394;15.468;2023-04-06T13:18:26;15.90;52.20
29725;DHT22;16636;48.394;15.468;2023-04-06T13:20:52;16.00;54.60
29725;DHT22;16636;48.394;15.468;2023-04-06T13:23:20;16.00;54.20
29725;DHT22;16636;48.394;15.468;2023-04-06T13:25:46;16.00;51.30
29725;DHT22;16636;48.394;15.468;2023-04-06T13:28:12;16.00;55.70
29725;DHT22;16636;48.394;15.468;2023-04-06T13:30:39;16.00;53.30
29725;DHT22;16636;48.394;15.468;2023-04-06T13:33:05;15.80;55.10
29725;DHT22;16636;48.394;15.468;2023-04-06T13:35:32;15.90;54.90
29725;DHT22;16636;48.394;15.468;2023-04-06T13:37:58;15.90;52.90
29725;DHT22;16636;48.394;15.468;2023-04-06T13:40:24;16.00;53.40
29725;DHT22;16636;48.394;15.468;2023-04-06T13:42:50;16.00;51.50
29725;DHT22;16636;48.394;15.468;2023-04-06T13:45:16;15.80;51.60
29725;DHT22;16636;48.394;15.468;2023-04-06T13:47:42;15.80;53.40
29725;DHT22;16636;48.394;15.468;2023-04-06T13:50:07;16.00;54.00
29725;DHT22;16636;48.394;15.468;2023-04-06T13:52:34;15.80;49.20
29725;DHT22;16636;48.394;15.468;2023-04-06T13:55:01;15.70;50.20
29725;DHT22;16636;48.394;15.468;2023-04-06T13:57:28;15.50;48.80
29725;DHT22;16636;48.394;15.468;2023-04-06T13:59:55;15.50;52.00
29725;DHT22;16636;48.394;15.468;2023-04-06T14:02:21;15.50;50.80
29725;DHT22;16636;48.394;15.468;2023-04-06T14:04:52;15.70;53.00
29725;DHT22;16636;48.394;15.468;2023-04-06T14:07:20;15.90;51.50
29725;DHT22;16636;48.394;15.468;2023-04-06T14:09:46;15.90;51.30
29725;DHT22;16636;48.394;15.468;2023-04-06T14:12:12;15.90;50.50
29725;DHT22;16636;48.394;15.468;2023-04-06T14:14:37;16.00;51.40
29725;DHT22;16636;48.394;15.468;2023-04-06T14:17:03;16.00;51.70
29725;DHT22;16636;48.394;15.468;2023-04-06T14:19:29;16.00;47.70
29725;DHT22;16636;48.394;15.468;2023-04-06T14:21:55;15.90;48.20
29725;DHT22;16636;48.394;15.468;2023-04-06T14:24:23;15.80;49.10
29725;DHT22;16636;48.394;15.468;2023-04-06T14:26:48;15.80;50.60
29725;DHT22;16636;48.394;15.468;2023-04-06T14:29:15;16.00;51.60
29725;DHT22;16636;48.394;15.468;2023-04-06T14:31:41;16.00;50.40
29725;DHT22;16636;48.394;15.468;2023-04-06T14:34:07;15.70;49.40
29725;DHT22;16636;48.394;15.468;2023-04-06T14:36:33;15.80;51.20
29725;DHT22;16636;48.394;15.468;2023-04-06T14:39:05;15.90;51.80
29725;DHT22;16636;48.394;15.468;2023-04-06T14:41:32;15.90;50.20
29725;DHT22;16636;48.394;15.468;2023-04-06T14:43:58;15.80;49.00
29725;DHT22;16636;48.394;15.468;2023-04-06T14:46:25;15.50;46.50
29725;DHT22;16636;48.394;15.468;2023-04-06T14:48:54;15.60;50.90
29725;DHT22;16636;48.394;15.468;2023-04-06T14:51:20;15.80;50.50
29725;DHT22;16636;48.394;15.468;2023-04-06T14:53:46;15.80;50.40
29725;DHT22;16636;48.394;15.468;2023-04-06T14:56:12;15.70;50.40
29725;DHT22;16636;48.394;15.468;2023-04-06T14:58:37;15.80;49.50
29725;DHT22;16636;48.394;15.468;2023-04-06T15:01:03;15.80;50.20
29725;DHT22;16636;48.394;15.468;2023-04-06T15:03:29;15.90;50.00
29725;DHT22;16636;48.394;15.468;2023-04-06T15:05:55;15.90;48.20
29725;DHT22;16636;48.394;15.468;2023-04-06T15:08:22;15.90;49.20
29725;DHT22;16636;48.394;15.468;2023-04-06T15:10:48;15.80;48.10
29725;DHT22;16636;48.394;15.468;2023-04-06T15:13:14;15.80;47.50
29725;DHT22;16636;48.394;15.468;2023-04-06T15:15:40;15.80;49.40
29725;DHT22;16636;48.394;15.468;2023-04-06T15:18:06;15.60;46.10
29725;DHT22;16636;48.394;15.468;2023-04-06T15:20:32;15.70;49.90
29725;DHT22;16636;48.394;15.468;2023-04-06T15:22:58;15.70;49.10
29725;DHT22;16636;48.394;15.468;2023-04-06T15:25:24;15.70;50.40
29725;DHT22;16636;48.394;15.468;2023-04-06T15:27:50;15.60;48.70
29725;DHT22;16636;48.394;15.468;2023-04-06T15:30:16;15.60;49.00
29725;DHT22;16636;48.394;15.468;2023-04-06T15:32:46;15.50;49.30
29725;DHT22;16636;48.394;15.468;2023-04-06T15:35:17;15.40;47.90